Time;durP1;ratioP1;P1;durP2;ratioP2;P2;SDS_P1;SDS_P2;PMS_P1;PMS_P2;Temp;Humidity;BMP_temperature;BMP_pressure;BME280_temperature;BME280_humidity;BME280_pressure;Samples;Min_cycle;Max_cycle;Signal;HPM_P1;HPM_P2
2023/01/12 22:22:14;;;;;;;7.77;5.50;;;5.10;99.90;;;;;;5132633;27;20275;-82
2023/01/12 22:24:40;;;;;;;9.77;6.80;;;5.20;99.90;;;;;;5133662;28;20177;-84
2023/01/12 22:27:06;;;;;;;11.83;6.60;;;5.10;99.90;;;;;;5132116;28;20173;-83
2023/01/12 22:29:32;;;;;;;10.90;6.83;;;5.10;99.90;;;;;;5112617;28;20178;-83
2023/01/12 22:31:58;;;;;;;14.57;8.20;;;5.20;99.90;;;;;;5113664;28;20169;-82
2023/01/12 22:34:24;;;;;;;10.30;7.90;;;5.10;99.90;;;;;;5131431;28;20205;-83
2023/01/12 22:36:50;;;;;;;13.33;8.93;;;5.10;99.90;;;;;;5131729;28;20240;-83
2023/01/12 22:39:16;;;;;;;15.73;9.97;;;5.10;99.90;;;;;;5112481;28;20711;-83
2023/01/12 22:41:41;;;;;;;19.13;11.33;;;5.10;99.90;;;;;;5131357;28;20226;-85
2023/01/12 22:44:07;;;;;;;17.70;10.43;;;5.20;99.90;;;;;;5112461;28;20201;-83
2023/01/12 22:46:34;;;;;;;16.10;9.80;;;5.10;99.90;;;;;;5113004;28;20226;-85
2023/01/12 22:49:00;;;;;;;14.33;10.57;;;5.00;99.90;;;;;;5130286;28;20170;-83
2023/01/12 22:51:28;;;;;;;14.57;10.37;;;4.90;99.90;;;;;;5129695;28;20181;-85
2023/01/12 22:53:55;;;;;;;17.17;10.57;;;4.90;99.90;;;;;;5134992;28;20228;-81
2023/01/12 22:56:21;;;;;;;16.60;10.40;;;4.90;99.90;;;;;;5115198;28;20185;-84
2023/01/12 22:58:52;;;;;;;18.93;10.47;;;4.90;99.90;;;;;;5130958;28;20165;-85
2023/01/12 23:01:19;;;;;;;18.50;10.70;;;4.90;99.90;;;;;;5131314;28;20198;-83
2023/01/12 23:03:47;;;;;;;11.80;8.37;;;4.90;99.90;;;;;;5131015;28;20174;-83
2023/01/12 23:06:14;;;;;;;18.77;9.77;;;4.90;99.90;;;;;;5112430;28;20181;-84
2023/01/12 23:08:42;;;;;;;10.53;8.00;;;4.90;99.90;;;;;;5130934;28;20177;-85
2023/01/12 23:11:19;;;;;;;9.20;6.73;;;4.90;99.90;;;;;;5113418;28;20666;-83
2023/01/12 23:13:45;;;;;;;7.17;6.00;;;4.80;99.90;;;;;;5131278;28;20189;-84
2023/01/12 23:16:13;;;;;;;8.37;6.33;;;4.70;99.90;;;;;;5112437;28;20182;-84
2023/01/12 23:18:43;;;;;;;7.77;5.93;;;4.70;99.90;;;;;;5112756;28;20264;-83
2023/01/12 23:21:15;;;;;;;9.07;6.30;;;4.70;99.90;;;;;;5131705;28;20246;-83
2023/01/12 23:23:47;;;;;;;6.43;4.93;;;4.80;99.90;;;;;;5112861;28;20178;-85
2023/01/12 23:26:15;;;;;;;7.80;5.67;;;4.70;99.90;;;;;;5131495;28;20216;-83
2023/01/12 23:28:47;;;;;;;5.90;4.80;;;4.80;99.90;;;;;;5130922;28;20170;-84
2023/01/12 23:31:17;;;;;;;6.53;5.50;;;4.70;99.90;;;;;;5130488;28;20529;-84
2023/01/12 23:33:43;;;;;;;7.93;5.67;;;4.70;99.90;;;;;;5116659;28;20205;-82
2023/01/12 23:36:14;;;;;;;7.10;5.63;;;4.70;99.90;;;;;;5116626;28;20620;-84
2023/01/12 23:38:40;;;;;;;7.97;5.17;;;4.70;99.90;;;;;;5116818;28;20252;-84
2023/01/12 23:41:15;;;;;;;6.10;5.30;;;4.70;99.90;;;;;;5098362;28;20207;-85
2023/01/12 23:43:41;;;;;;;6.50;5.17;;;4.70;99.90;;;;;;5100341;28;20589;-85
2023/01/12 23:46:08;;;;;;;7.60;5.33;;;4.80;99.90;;;;;;5118922;28;20166;-83
2023/01/12 23:48:34;;;;;;;6.83;5.47;;;4.80;99.90;;;;;;5119318;28;20167;-84
2023/01/12 23:51:00;;;;;;;10.53;5.20;;;4.80;99.90;;;;;;5100728;28;20188;-84
2023/01/12 23:53:27;;;;;;;7.07;5.40;;;4.80;99.90;;;;;;5123092;28;20168;-83
2023/01/12 23:55:54;;;;;;;8.00;5.37;;;4.80;99.90;;;;;;5102983;28;20181;-85
2023/01/12 23:58:20;;;;;;;6.50;5.00;;;4.80;99.90;;;;;;5138280;28;20231;-83
